Time;durP1;ratioP1;P1;durP2;ratioP2;P2;SDS_P1;SDS_P2;PMS_P1;PMS_P2;Temp;Humidity;BMP_temperature;BMP_pressure;BME280_temperature;BME280_humidity;BME280_pressure;Samples;Min_cycle;Max_cycle;Signal;HPM_P1;HPM_P2
2022/03/13 00:00:36;;;;;;;29.27;17.20;;;;;;;;;;4822552;29;20110;-67
2022/03/13 00:03:04;;;;;;;25.85;16.45;;;;;;;;;;4822978;29;20140;-66
2022/03/13 00:05:34;;;;;;;29.13;16.85;;;;;;;;;;4822434;29;20051;-66
2022/03/13 00:08:02;;;;;;;27.38;16.40;;;;;;;;;;4822473;29;20091;-66
2022/03/13 00:10:30;;;;;;;27.92;17.10;;;;;;;;;;4822242;29;20058;-66
2022/03/13 00:12:56;;;;;;;27.25;17.30;;;;;;;;;;4805496;29;20129;-66
2022/03/13 00:15:22;;;;;;;;;;;;;;;;;;4822520;29;20050;-66
2022/03/13 00:17:50;;;;;;;27.55;16.67;;;;;;;;;;4822248;29;20000;-65
2022/03/13 00:20:17;;;;;;;25.65;16.17;;;;;;;;;;4822215;29;20389;-66
2022/03/13 00:22:43;;;;;;;26.95;17.42;;;;;;;;;;4822058;29;20086;-66
2022/03/13 00:25:10;;;;;;;26.25;15.95;;;;;;;;;;4775644;29;20081;-67
2022/03/13 00:27:36;;;;;;;28.00;16.83;;;;;;;;;;4821686;29;20053;-67
2022/03/13 00:30:06;;;;;;;26.70;16.35;;;;;;;;;;4835578;29;20065;-67
2022/03/13 00:32:33;;;;;;;28.17;17.45;;;;;;;;;;4821917;29;20070;-66
2022/03/13 00:34:59;;;;;;;;;;;;;;;;;;4822207;29;20060;-66
2022/03/13 00:37:25;;;;;;;28.92;18.13;;;;;;;;;;4821988;29;19964;-66
2022/03/13 00:39:56;;;;;;;27.33;18.30;;;;;;;;;;4791268;29;20046;-64
2022/03/13 00:42:22;;;;;;;26.40;17.58;;;;;;;;;;4821799;29;20444;-66
2022/03/13 00:44:49;;;;;;;28.30;17.20;;;;;;;;;;4821685;29;20053;-66
2022/03/13 00:47:16;;;;;;;27.02;17.08;;;;;;;;;;4805248;29;20065;-66
2022/03/13 00:49:42;;;;;;;26.70;17.67;;;;;;;;;;4822334;29;20058;-66
2022/03/13 00:52:08;;;;;;;26.20;17.25;;;;;;;;;;4805695;29;20097;-66
2022/03/13 00:54:34;;;;;;;27.00;16.63;;;;;;;;;;4834984;29;20068;-66
2022/03/13 00:57:00;;;;;;;28.05;17.00;;;;;;;;;;4821605;29;20118;-68
2022/03/13 00:59:26;;;;;;;34.72;18.05;;;;;;;;;;4820909;29;20058;-66
2022/03/13 01:01:52;;;;;;;31.33;17.27;;;;;;;;;;4821506;29;20178;-66
2022/03/13 01:04:18;;;;;;;26.27;16.38;;;;;;;;;;4821546;29;20050;-66
2022/03/13 01:06:46;;;;;;;28.02;17.48;;;;;;;;;;4821010;29;20522;-65
2022/03/13 01:09:12;;;;;;;29.00;18.15;;;;;;;;;;4821373;29;20439;-65
2022/03/13 01:11:38;;;;;;;30.38;18.40;;;;;;;;;;4821245;29;20157;-66
2022/03/13 01:14:05;;;;;;;28.80;17.90;;;;;;;;;;4821699;29;20062;-65
2022/03/13 01:16:34;;;;;;;28.27;18.20;;;;;;;;;;4804550;29;20540;-67
2022/03/13 01:19:00;;;;;;;29.65;16.73;;;;;;;;;;4834816;29;20455;-66
2022/03/13 01:21:28;;;;;;;28.48;18.65;;;;;;;;;;4834630;29;20073;-66
2022/03/13 01:24:23;;;;;;;28.33;17.92;;;;;;;;;;4820796;29;20050;-67
2022/03/13 01:26:57;;;;;;;27.15;17.77;;;;;;;;;;4804856;29;20173;-66
2022/03/13 01:29:23;;;;;;;29.33;17.75;;;;;;;;;;4820783;29;20139;-67
2022/03/13 01:31:50;;;;;;;27.00;18.20;;;;;;;;;;4820691;29;20088;-66
2022/03/13 01:34:38;;;;;;;35.85;18.80;;;;;;;;;;4820724;29;20069;-67
2022/03/13 01:37:09;;;;;;;29.63;18.20;;;;;;;;;;4820837;29;20073;-67
2022/03/13 01:39:35;;;;;;;29.75;18.48;;;;;;;;;;4820662;29;20456;-68
2022/03/13 01:42:01;;;;;;;29.63;18.10;;;;;;;;;;4804329;29;20072;-66
2022/03/13 01:44:27;;;;;;;30.55;18.65;;;;;;;;;;4820868;29;20046;-67
2022/03/13 01:46:53;;;;;;;29.45;18.00;;;;;;;;;;4820816;29;20050;-66
2022/03/13 01:49:24;;;;;;;29.00;17.88;;;;;;;;;;4820684;29;20133;-66
2022/03/13 01:51:50;;;;;;;32.35;17.80;;;;;;;;;;4819344;29;20072;-66
2022/03/13 01:54:16;;;;;;;;;;;;;;;;;;4820757;29;20069;-67
2022/03/13 01:56:42;;;;;;;29.85;17.95;;;;;;;;;;4820325;29;20019;-67
2022/03/13 01:59:09;;;;;;;28.77;18.35;;;;;;;;;;4833642;29;20051;-67
2022/03/13 02:01:35;;;;;;;28.00;17.58;;;;;;;;;;4820204;29;20173;-68
2022/03/13 02:04:02;;;;;;;27.67;17.85;;;;;;;;;;4820411;29;20130;-67
2022/03/13 02:06:28;;;;;;;28.25;17.88;;;;;;;;;;4820235;29;20051;-68
2022/03/13 02:08:54;;;;;;;31.88;18.67;;;;;;;;;;4820350;29;20122;-65
2022/03/13 02:11:22;;;;;;;32.50;19.27;;;;;;;;;;4823554;29;20062;-66
2022/03/13 02:13:49;;;;;;;31.35;18.27;;;;;;;;;;4823645;29;20061;-67
2022/03/13 02:16:15;;;;;;;28.95;18.77;;;;;;;;;;4823800;29;20144;-67
2022/03/13 02:18:42;;;;;;;28.52;18.85;;;;;;;;;;4823440;29;20199;-67
2022/03/13 02:21:09;;;;;;;29.65;18.17;;;;;;;;;;4823506;29;20059;-67
2022/03/13 02:23:36;;;;;;;31.23;18.20;;;;;;;;;;4807317;29;20050;-66
2022/03/13 02:26:03;;;;;;;28.20;18.15;;;;;;;;;;4823728;29;20523;-67
2022/03/13 02:28:30;;;;;;;30.05;18.75;;;;;;;;;;4823468;29;20051;-67
2022/03/13 02:30:58;;;;;;;31.45;18.17;;;;;;;;;;4823165;29;20056;-66
2022/03/13 02:33:24;;;;;;;31.05;19.20;;;;;;;;;;4823105;29;20453;-68
2022/03/13 02:35:56;;;;;;;29.98;18.80;;;;;;;;;;4823242;29;20153;-67
2022/03/13 02:38:22;;;;;;;31.52;19.10;;;;;;;;;;4806638;29;20352;-67
2022/03/13 02:40:48;;;;;;;27.55;18.50;;;;;;;;;;4823134;29;20422;-67
2022/03/13 02:43:15;;;;;;;31.17;19.73;;;;;;;;;;4823148;29;20054;-67
2022/03/13 02:45:41;;;;;;;29.25;18.23;;;;;;;;;;4822990;29;20137;-68
2022/03/13 02:48:08;;;;;;;30.35;19.08;;;;;;;;;;4823095;29;20054;-67
2022/03/13 02:50:35;;;;;;;28.90;18.98;;;;;;;;;;4836515;29;20141;-67
2022/03/13 02:53:01;;;;;;;;;;;;;;;;;;4822933;29;20065;-66
2022/03/13 02:55:27;;;;;;;30.58;18.77;;;;;;;;;;4822815;29;19924;-67
2022/03/13 02:57:53;;;;;;;;;;;;;;;;;;4822945;29;20488;-66
2022/03/13 03:00:20;;;;;;;30.10;18.60;;;;;;;;;;4806211;29;19998;-67
2022/03/13 03:02:47;;;;;;;29.20;19.17;;;;;;;;;;4822674;29;20099;-66
2022/03/13 03:05:15;;;;;;;31.17;18.85;;;;;;;;;;4822935;29;20134;-66
2022/03/13 03:07:41;;;;;;;30.38;18.80;;;;;;;;;;4822726;29;20106;-67
2022/03/13 03:10:12;;;;;;;30.25;20.27;;;;;;;;;;4822619;29;20089;-67
2022/03/13 03:12:39;;;;;;;30.27;19.63;;;;;;;;;;4822596;29;20133;-67
2022/03/13 03:15:06;;;;;;;29.02;19.77;;;;;;;;;;4822414;29;20058;-67
2022/03/13 03:17:32;;;;;;;30.08;19.90;;;;;;;;;;4822522;29;20138;-67
2022/03/13 03:19:58;;;;;;;30.05;20.23;;;;;;;;;;4822603;29;20050;-67
2022/03/13 03:22:25;;;;;;;30.75;19.67;;;;;;;;;;4821976;29;20157;-66
2022/03/13 03:24:51;;;;;;;32.80;20.50;;;;;;;;;;4822275;29;20051;-67
2022/03/13 03:27:17;;;;;;;31.15;20.52;;;;;;;;;;4836339;29;20072;-67
2022/03/13 03:29:43;;;;;;;30.40;19.95;;;;;;;;;;4806002;29;20054;-67
2022/03/13 03:32:09;;;;;;;33.80;20.45;;;;;;;;;;4822273;29;20118;-67
2022/03/13 03:34:35;;;;;;;30.63;20.10;;;;;;;;;;4836004;29;20046;-67
2022/03/13 03:37:02;;;;;;;30.48;20.30;;;;;;;;;;4822405;29;20141;-68
2022/03/13 03:39:30;;;;;;;31.30;20.10;;;;;;;;;;4805487;29;20508;-67
2022/03/13 03:41:57;;;;;;;32.50;21.30;;;;;;;;;;4835914;29;20326;-67
2022/03/13 03:44:24;;;;;;;31.90;20.30;;;;;;;;;;4822022;29;20087;-67
2022/03/13 03:46:50;;;;;;;33.28;20.88;;;;;;;;;;4822113;29;20061;-67
2022/03/13 03:49:17;;;;;;;30.67;20.95;;;;;;;;;;4822033;29;20054;-67
2022/03/13 03:51:43;;;;;;;30.25;20.55;;;;;;;;;;4835988;29;20168;-67
2022/03/13 03:54:09;;;;;;;;;;;;;;;;;;4822405;29;20141;-67
2022/03/13 03:56:36;;;;;;;28.67;19.40;;;;;;;;;;4820600;29;20362;-67
2022/03/13 03:59:02;;;;;;;32.38;20.27;;;;;;;;;;4822028;29;20134;-67
2022/03/13 04:01:34;;;;;;;30.00;19.45;;;;;;;;;;4821844;29;20134;-67
2022/03/13 04:04:00;;;;;;;32.63;20.13;;;;;;;;;;4822310;29;20058;-67
2022/03/13 04:06:26;;;;;;;32.63;21.08;;;;;;;;;;4835466;29;20130;-67
2022/03/13 04:08:53;;;;;;;33.20;21.77;;;;;;;;;;4821839;29;20539;-66
2022/03/13 04:11:19;;;;;;;;;;;;;;;;;;4805406;29;20061;-67
2022/03/13 04:13:45;;;;;;;33.67;22.08;;;;;;;;;;4821796;29;19925;-66
2022/03/13 04:16:12;;;;;;;35.40;20.35;;;;;;;;;;4821637;29;20050;-66
2022/03/13 04:18:38;;;;;;;31.55;21.13;;;;;;;;;;4821197;29;20129;-67
2022/03/13 04:21:06;;;;;;;31.17;21.17;;;;;;;;;;4821509;29;20046;-67
2022/03/13 04:23:33;;;;;;;30.90;21.25;;;;;;;;;;4821435;29;20065;-66
2022/03/13 04:26:00;;;;;;;33.40;20.88;;;;;;;;;;4821404;29;20069;-66
2022/03/13 04:28:26;;;;;;;;;;;;;;;;;;4821670;29;20118;-67
2022/03/13 04:30:57;;;;;;;32.53;21.30;;;;;;;;;;4821459;29;19931;-66
2022/03/13 04:33:23;;;;;;;31.98;20.73;;;;;;;;;;4805123;29;20134;-66
2022/03/13 04:35:49;;;;;;;32.65;20.67;;;;;;;;;;4821534;29;20213;-67
2022/03/13 04:38:16;;;;;;;34.42;20.80;;;;;;;;;;4821575;29;20065;-66
2022/03/13 04:40:42;;;;;;;30.63;21.30;;;;;;;;;;4821594;29;20073;-66
2022/03/13 04:43:08;;;;;;;32.50;20.58;;;;;;;;;;4821470;29;20082;-66
2022/03/13 04:45:35;;;;;;;31.73;20.00;;;;;;;;;;4835140;29;20050;-66
2022/03/13 04:48:01;;;;;;;;;;;;;;;;;;4821763;29;20414;-67
2022/03/13 04:50:27;;;;;;;34.30;20.83;;;;;;;;;;4821625;29;19935;-65
2022/03/13 04:52:53;;;;;;;32.55;21.67;;;;;;;;;;4821154;29;20063;-66
2022/03/13 04:55:19;;;;;;;30.67;20.80;;;;;;;;;;4821355;29;20210;-65
2022/03/13 04:57:45;;;;;;;31.30;20.08;;;;;;;;;;4821305;29;20054;-65
2022/03/13 05:00:12;;;;;;;32.42;20.75;;;;;;;;;;4821091;29;20472;-65
2022/03/13 05:02:38;;;;;;;30.58;19.13;;;;;;;;;;4820859;29;20500;-66
2022/03/13 05:05:05;;;;;;;31.15;19.88;;;;;;;;;;4821336;29;20161;-65
2022/03/13 05:07:31;;;;;;;32.53;20.80;;;;;;;;;;4821479;29;20424;-66
2022/03/13 05:09:57;;;;;;;33.67;20.77;;;;;;;;;;4821230;29;20160;-66
2022/03/13 05:12:29;;;;;;;34.65;20.90;;;;;;;;;;4821216;29;20066;-65
2022/03/13 05:14:56;;;;;;;30.52;20.88;;;;;;;;;;4821200;29;20107;-65
2022/03/13 05:17:22;;;;;;;33.83;21.33;;;;;;;;;;4821153;29;20042;-66
2022/03/13 05:19:48;;;;;;;34.00;22.05;;;;;;;;;;4820992;29;20093;-66
2022/03/13 05:22:14;;;;;;;33.88;20.65;;;;;;;;;;4821097;29;20141;-66
2022/03/13 05:24:40;;;;;;;33.58;21.45;;;;;;;;;;4820777;29;20413;-65
2022/03/13 05:27:07;;;;;;;30.77;19.88;;;;;;;;;;4820897;29;20058;-65
2022/03/13 05:29:33;;;;;;;30.45;21.40;;;;;;;;;;4804449;29;20054;-65
2022/03/13 05:31:59;;;;;;;32.05;19.15;;;;;;;;;;4804347;29;20081;-66
2022/03/13 05:34:25;;;;;;;32.08;20.35;;;;;;;;;;4820881;29;20069;-64
2022/03/13 05:36:51;;;;;;;29.67;18.73;;;;;;;;;;4820436;29;20104;-65
2022/03/13 05:39:17;;;;;;;31.05;19.48;;;;;;;;;;4819998;29;20464;-66
2022/03/13 05:41:43;;;;;;;30.73;19.52;;;;;;;;;;4818965;29;20047;-65
2022/03/13 05:44:11;;;;;;;27.42;19.35;;;;;;;;;;4818172;29;20122;-65
2022/03/13 05:46:38;;;;;;;30.38;20.08;;;;;;;;;;4818738;29;20144;-66
2022/03/13 05:49:04;;;;;;;31.25;20.58;;;;;;;;;;4832434;29;20054;-65
2022/03/13 05:51:35;;;;;;;43.25;20.25;;;;;;;;;;4818535;29;20073;-66
2022/03/13 05:54:05;;;;;;;33.47;20.20;;;;;;;;;;4802253;29;20066;-65
2022/03/13 05:56:31;;;;;;;29.15;18.45;;;;;;;;;;4832574;29;20066;-65
2022/03/13 05:58:57;;;;;;;27.95;17.90;;;;;;;;;;4818557;29;20061;-66
2022/03/13 06:01:23;;;;;;;29.60;19.00;;;;;;;;;;4801591;29;20434;-67
2022/03/13 06:03:49;;;;;;;27.70;18.85;;;;;;;;;;4818463;29;20050;-67
2022/03/13 06:06:15;;;;;;;27.88;18.60;;;;;;;;;;4818007;29;20226;-66
2022/03/13 06:08:42;;;;;;;31.90;18.60;;;;;;;;;;4817895;29;20564;-66
2022/03/13 06:11:08;;;;;;;27.92;17.30;;;;;;;;;;4818282;29;20463;-65
2022/03/13 06:13:34;;;;;;;29.75;17.95;;;;;;;;;;4832470;29;20085;-65
2022/03/13 06:16:00;;;;;;;27.90;18.17;;;;;;;;;;4818543;29;20058;-66
2022/03/13 06:18:31;;;;;;;28.20;18.42;;;;;;;;;;4818330;29;20092;-66
2022/03/13 06:20:58;;;;;;;28.77;18.15;;;;;;;;;;4818481;29;20054;-68
2022/03/13 06:23:24;;;;;;;29.42;17.58;;;;;;;;;;4818195;29;20157;-65
2022/03/13 06:25:50;;;;;;;29.98;18.08;;;;;;;;;;4818207;29;20105;-66
2022/03/13 06:28:18;;;;;;;;;;;;;;;;;;4818281;29;20367;-64
2022/03/13 06:30:44;;;;;;;29.17;17.92;;;;;;;;;;4818299;29;19980;-66
2022/03/13 06:33:10;;;;;;;27.35;18.00;;;;;;;;;;4832334;29;20070;-66
2022/03/13 06:35:37;;;;;;;25.25;17.05;;;;;;;;;;4818294;29;20054;-67
2022/03/13 06:38:03;;;;;;;27.27;18.13;;;;;;;;;;4818160;29;20050;-66
2022/03/13 06:40:29;;;;;;;28.42;18.38;;;;;;;;;;4818238;29;20118;-65
2022/03/13 06:42:56;;;;;;;31.15;17.98;;;;;;;;;;4818057;29;20126;-66
2022/03/13 06:45:23;;;;;;;27.88;16.85;;;;;;;;;;4817949;29;20116;-65
2022/03/13 06:47:50;;;;;;;26.73;17.95;;;;;;;;;;4818391;29;20061;-66
2022/03/13 06:50:17;;;;;;;28.85;18.05;;;;;;;;;;4817898;29;20460;-66
2022/03/13 06:52:44;;;;;;;29.50;16.73;;;;;;;;;;4832044;29;20073;-66
2022/03/13 06:55:12;;;;;;;30.23;18.00;;;;;;;;;;4831700;29;20441;-65
2022/03/13 06:57:39;;;;;;;30.98;18.58;;;;;;;;;;4820427;29;20094;-65
2022/03/13 07:00:05;;;;;;;26.08;17.00;;;;;;;;;;4821152;29;20061;-66
2022/03/13 07:02:31;;;;;;;29.65;17.85;;;;;;;;;;4835201;29;20162;-67
2022/03/13 07:04:57;;;;;;;31.50;18.50;;;;;;;;;;4821111;29;20166;-64
2022/03/13 07:07:25;;;;;;;29.02;18.73;;;;;;;;;;4804492;29;20090;-64
2022/03/13 07:09:52;;;;;;;29.33;18.42;;;;;;;;;;4820593;29;20480;-64
2022/03/13 07:12:19;;;;;;;29.90;18.17;;;;;;;;;;4820751;29;20434;-64
2022/03/13 07:14:48;;;;;;;27.95;17.13;;;;;;;;;;4804390;29;20054;-65
2022/03/13 07:17:15;;;;;;;29.55;18.73;;;;;;;;;;4834839;29;20126;-65
2022/03/13 07:19:43;;;;;;;28.77;17.98;;;;;;;;;;4820509;29;20068;-65
2022/03/13 07:22:10;;;;;;;31.33;18.70;;;;;;;;;;4820912;29;20416;-64
2022/03/13 07:24:43;;;;;;;27.23;17.40;;;;;;;;;;4834063;29;20055;-64
2022/03/13 07:27:09;;;;;;;27.73;18.65;;;;;;;;;;4820837;29;20103;-66
2022/03/13 07:29:35;;;;;;;;;;;;;;;;;;4822019;29;20050;-64
2022/03/13 07:32:01;;;;;;;38.28;18.40;;;;;;;;;;4821058;29;19936;-65
2022/03/13 07:34:28;;;;;;;25.95;18.17;;;;;;;;;;4820829;29;20077;-64
2022/03/13 07:36:54;;;;;;;;;;;;;;;;;;4821229;29;20062;-66
2022/03/13 07:39:21;;;;;;;30.27;19.02;;;;;;;;;;4820666;29;20391;-64
2022/03/13 07:41:50;;;;;;;30.48;17.75;;;;;;;;;;4833952;29;20050;-66
2022/03/13 07:44:19;;;;;;;27.42;17.95;;;;;;;;;;4820886;29;20081;-65
2022/03/13 07:46:45;;;;;;;;;;;;;;;;;;4821165;29;20159;-63
2022/03/13 07:49:11;;;;;;;27.77;18.02;;;;;;;;;;4820736;29;19993;-64
2022/03/13 07:51:37;;;;;;;28.52;17.85;;;;;;;;;;4820500;29;20054;-66
2022/03/13 07:54:04;;;;;;;29.52;18.05;;;;;;;;;;4820569;29;20479;-65
2022/03/13 07:56:31;;;;;;;27.00;17.50;;;;;;;;;;4820373;29;20058;-65
2022/03/13 07:58:57;;;;;;;;;;;;;;;;;;4820895;29;20398;-67
2022/03/13 08:01:23;;;;;;;36.42;19.80;;;;;;;;;;4803848;29;19962;-65
2022/03/13 08:03:51;;;;;;;32.30;18.10;;;;;;;;;;4820787;29;20149;-65
2022/03/13 08:06:17;;;;;;;26.10;17.45;;;;;;;;;;4820339;29;20194;-65
2022/03/13 08:08:43;;;;;;;30.02;17.52;;;;;;;;;;4819319;29;20216;-65
2022/03/13 08:11:10;;;;;;;30.55;18.23;;;;;;;;;;4834170;29;20132;-65
2022/03/13 08:13:39;;;;;;;26.08;16.38;;;;;;;;;;4820342;29;20050;-65
2022/03/13 08:16:05;;;;;;;28.55;18.25;;;;;;;;;;4820294;29;20043;-65
2022/03/13 08:18:32;;;;;;;26.23;16.42;;;;;;;;;;4820184;29;20050;-65
2022/03/13 08:20:58;;;;;;;26.20;15.95;;;;;;;;;;4820110;29;20206;-67
2022/03/13 08:23:24;;;;;;;27.10;15.80;;;;;;;;;;4833560;29;20071;-65
2022/03/13 08:25:50;;;;;;;25.50;16.20;;;;;;;;;;4803299;29;20130;-66
2022/03/13 08:28:16;;;;;;;27.83;15.68;;;;;;;;;;4820103;29;20154;-66
2022/03/13 08:30:42;;;;;;;;;;;;;;;;;;4820169;29;20211;-67
2022/03/13 08:33:09;;;;;;;25.42;16.15;;;;;;;;;;4803582;29;20383;-65
2022/03/13 08:35:35;;;;;;;30.15;17.52;;;;;;;;;;4833830;29;20051;-65
2022/03/13 08:38:01;;;;;;;28.27;17.35;;;;;;;;;;4819924;29;20165;-65
2022/03/13 08:40:27;;;;;;;28.10;17.17;;;;;;;;;;4820069;29;20073;-64
2022/03/13 08:42:54;;;;;;;26.75;17.48;;;;;;;;;;4819877;29;20046;-65
2022/03/13 08:45:20;;;;;;;27.83;16.63;;;;;;;;;;4820011;29;20106;-65
2022/03/13 08:47:47;;;;;;;;;;;;;;;;;;4819395;29;20062;-66
2022/03/13 08:50:16;;;;;;;27.20;16.50;;;;;;;;;;4820127;29;19943;-66
2022/03/13 08:52:45;;;;;;;25.88;15.18;;;;;;;;;;4819600;29;20050;-65
2022/03/13 08:55:15;;;;;;;;;;;;;;;;;;4820429;29;20054;-64
2022/03/13 08:57:42;;;;;;;25.75;16.02;;;;;;;;;;4818614;29;19925;-65
2022/03/13 09:00:10;;;;;;;26.88;16.15;;;;;;;;;;4833501;29;20046;-66
2022/03/13 09:02:37;;;;;;;24.00;15.45;;;;;;;;;;4820652;29;20061;-64
2022/03/13 09:05:03;;;;;;;23.83;16.13;;;;;;;;;;4820069;29;20113;-64
2022/03/13 09:07:29;;;;;;;25.75;16.15;;;;;;;;;;4820204;29;20058;-64
2022/03/13 09:09:55;;;;;;;24.55;15.95;;;;;;;;;;4819957;29;20051;-66
2022/03/13 09:12:21;;;;;;;25.25;16.02;;;;;;;;;;4819883;29;20065;-64
2022/03/13 09:14:47;;;;;;;28.58;15.68;;;;;;;;;;4819214;29;20449;-66
2022/03/13 09:17:17;;;;;;;24.65;15.38;;;;;;;;;;4832546;29;20050;-64
2022/03/13 09:19:43;;;;;;;23.67;15.27;;;;;;;;;;4802183;29;20060;-65
2022/03/13 09:22:09;;;;;;;;;;;;;;;;;;4819732;29;20054;-65
2022/03/13 09:24:36;;;;;;;25.23;15.13;;;;;;;;;;4819137;29;19972;-65
2022/03/13 09:27:02;;;;;;;22.63;14.75;;;;;;;;;;4819522;29;20141;-64
2022/03/13 09:29:28;;;;;;;25.92;15.27;;;;;;;;;;4819846;29;20133;-64
2022/03/13 09:31:57;;;;;;;24.25;14.38;;;;;;;;;;4803089;29;20050;-65
2022/03/13 09:34:24;;;;;;;23.13;14.68;;;;;;;;;;4819629;29;20050;-66
2022/03/13 09:36:50;;;;;;;24.88;14.85;;;;;;;;;;4820334;29;20054;-65
2022/03/13 09:39:17;;;;;;;22.88;13.65;;;;;;;;;;4802190;29;20523;-65
2022/03/13 09:41:45;;;;;;;25.45;14.80;;;;;;;;;;4819691;29;20137;-66
2022/03/13 09:44:11;;;;;;;25.45;15.07;;;;;;;;;;4819396;29;20128;-65
2022/03/13 09:46:38;;;;;;;22.27;14.75;;;;;;;;;;4819533;29;20216;-66
2022/03/13 09:49:04;;;;;;;24.85;14.88;;;;;;;;;;4818948;29;20087;-67
2022/03/13 09:51:30;;;;;;;25.20;14.48;;;;;;;;;;4819006;29;20050;-67
2022/03/13 09:53:56;;;;;;;24.75;15.43;;;;;;;;;;4819014;29;20074;-67
2022/03/13 09:56:24;;;;;;;25.00;14.90;;;;;;;;;;4819056;29;20136;-66
2022/03/13 09:58:51;;;;;;;26.08;14.63;;;;;;;;;;4819369;29;20341;-65
2022/03/13 10:01:17;;;;;;;25.13;14.57;;;;;;;;;;4818802;29;20360;-67
2022/03/13 10:03:46;;;;;;;26.20;15.45;;;;;;;;;;4819001;29;20054;-65
2022/03/13 10:06:13;;;;;;;24.02;15.02;;;;;;;;;;4818955;29;20046;-65
2022/03/13 10:08:39;;;;;;;24.52;14.60;;;;;;;;;;4819492;29;20055;-66
2022/03/13 10:11:07;;;;;;;26.48;15.85;;;;;;;;;;4818608;29;20054;-67
2022/03/13 10:13:35;;;;;;;24.85;14.25;;;;;;;;;;4819571;29;20058;-66
2022/03/13 10:16:02;;;;;;;23.70;14.30;;;;;;;;;;4802572;29;20468;-66
2022/03/13 10:18:28;;;;;;;26.05;15.35;;;;;;;;;;4818728;29;20444;-65
2022/03/13 10:20:55;;;;;;;28.55;14.38;;;;;;;;;;4818578;29;20050;-66
2022/03/13 10:23:22;;;;;;;24.05;14.18;;;;;;;;;;4833874;29;20054;-66
2022/03/13 10:25:49;;;;;;;25.55;14.20;;;;;;;;;;4818772;29;20087;-65
2022/03/13 10:28:25;;;;;;;25.38;15.13;;;;;;;;;;4818682;29;20125;-65
2022/03/13 10:31:01;;;;;;;25.00;14.10;;;;;;;;;;4819316;29;20394;-65
2022/03/13 10:33:28;;;;;;;22.58;14.35;;;;;;;;;;4821633;29;20460;-65
2022/03/13 10:36:11;;;;;;;25.05;15.52;;;;;;;;;;4821930;29;20052;-65
2022/03/13 10:38:55;;;;;;;26.05;15.85;;;;;;;;;;4821573;29;20134;-65
2022/03/13 10:41:39;;;;;;;27.08;14.32;;;;;;;;;;4821732;29;20115;-66
2022/03/13 10:44:05;;;;;;;24.85;15.40;;;;;;;;;;4822120;29;20185;-65
2022/03/13 10:46:31;;;;;;;;;;;;;;;;;;4822089;29;20093;-64
2022/03/13 10:48:58;;;;;;;22.50;14.30;;;;;;;;;;4821289;29;20331;-65
2022/03/13 10:51:45;;;;;;;26.67;15.07;;;;;;;;;;4820942;29;20515;-66
2022/03/13 10:54:26;;;;;;;23.42;13.60;;;;;;;;;;4804464;29;20098;-66
2022/03/13 10:57:04;;;;;;;26.15;14.95;;;;;;;;;;4821515;29;20122;-65
2022/03/13 10:59:31;;;;;;;25.75;14.60;;;;;;;;;;4835316;29;20058;-65
2022/03/13 11:02:13;;;;;;;25.85;14.93;;;;;;;;;;4821350;29;20057;-65
2022/03/13 11:04:46;;;;;;;23.88;14.52;;;;;;;;;;4821341;29;20058;-65
2022/03/13 11:07:14;;;;;;;25.95;14.88;;;;;;;;;;4821838;29;20058;-66
2022/03/13 11:09:40;;;;;;;25.27;14.93;;;;;;;;;;4821378;29;20070;-65
2022/03/13 11:12:10;;;;;;;24.60;14.73;;;;;;;;;;4820144;29;20052;-64
2022/03/13 11:14:37;;;;;;;29.85;15.10;;;;;;;;;;4821712;29;20119;-65
2022/03/13 11:17:07;;;;;;;24.90;14.68;;;;;;;;;;4821503;29;20058;-65
2022/03/13 11:19:36;;;;;;;25.88;14.30;;;;;;;;;;4821523;29;20050;-65
2022/03/13 11:22:03;;;;;;;24.30;14.77;;;;;;;;;;4835759;29;20352;-65
2022/03/13 11:24:30;;;;;;;26.45;14.25;;;;;;;;;;4821770;29;20101;-65
2022/03/13 11:26:59;;;;;;;23.80;13.45;;;;;;;;;;4834342;29;20050;-64
2022/03/13 11:29:43;;;;;;;26.48;14.88;;;;;;;;;;4821227;29;20133;-71
2022/03/13 11:32:42;;;;;;;24.88;15.13;;;;;;;;;;4822128;29;20057;-65
2022/03/13 11:35:13;;;;;;;25.63;14.18;;;;;;;;;;4780889;29;20062;-65
2022/03/13 11:37:40;;;;;;;27.00;14.32;;;;;;;;;;4821005;29;20061;-65
2022/03/13 11:40:07;;;;;;;23.90;13.90;;;;;;;;;;4821475;29;20141;-64
2022/03/13 11:42:50;;;;;;;24.75;13.95;;;;;;;;;;4834487;29;20050;-65
2022/03/13 11:45:30;;;;;;;23.73;14.60;;;;;;;;;;4821127;29;20054;-65
2022/03/13 11:48:19;;;;;;;23.63;14.18;;;;;;;;;;4820978;29;20145;-65
2022/03/13 11:50:56;;;;;;;23.92;14.60;;;;;;;;;;4781065;29;20598;-67
2022/03/13 11:53:24;;;;;;;23.17;13.77;;;;;;;;;;4820431;29;20157;-65
2022/03/13 11:56:02;;;;;;;25.25;13.85;;;;;;;;;;4820944;29;20058;-66
2022/03/13 11:58:37;;;;;;;24.55;14.40;;;;;;;;;;4820780;29;20117;-63
2022/03/13 12:01:07;;;;;;;24.70;14.43;;;;;;;;;;4834307;29;20058;-67
2022/03/13 12:03:33;;;;;;;25.77;14.52;;;;;;;;;;4820437;29;20050;-65
2022/03/13 12:06:00;;;;;;;23.80;13.60;;;;;;;;;;4820433;29;20051;-64
2022/03/13 12:08:28;;;;;;;;;;;;;;;;;;4821230;29;20050;-64
2022/03/13 12:10:54;;;;;;;25.58;14.75;;;;;;;;;;4804344;29;20099;-65
2022/03/13 12:13:24;;;;;;;25.23;15.23;;;;;;;;;;4820541;29;20145;-65
2022/03/13 12:15:50;;;;;;;25.35;14.50;;;;;;;;;;4788632;29;20058;-66
2022/03/13 12:18:18;;;;;;;25.08;13.70;;;;;;;;;;4820775;29;20046;-63
2022/03/13 12:20:46;;;;;;;23.65;12.52;;;;;;;;;;4820558;29;20054;-66
2022/03/13 12:23:25;;;;;;;23.10;13.50;;;;;;;;;;4820486;29;20106;-72
2022/03/13 12:25:53;;;;;;;23.27;12.35;;;;;;;;;;4833708;29;20062;-63
2022/03/13 12:28:20;;;;;;;23.65;13.85;;;;;;;;;;4820467;29;20495;-63
2022/03/13 12:30:46;;;;;;;27.65;13.80;;;;;;;;;;4819807;29;20464;-75
2022/03/13 12:33:14;;;;;;;;;;;;;;;;;;4820672;29;20050;-64
2022/03/13 12:35:42;;;;;;;24.45;14.40;;;;;;;;;;4820413;29;19928;-65
2022/03/13 12:38:08;;;;;;;22.08;13.50;;;;;;;;;;4820111;29;20550;-64
2022/03/13 12:40:46;;;;;;;21.92;13.30;;;;;;;;;;4819760;29;20383;-66
2022/03/13 12:43:12;;;;;;;25.42;13.57;;;;;;;;;;4819709;29;20089;-65
2022/03/13 12:45:51;;;;;;;23.77;13.55;;;;;;;;;;4819942;29;20065;-64
2022/03/13 12:48:17;;;;;;;25.80;14.45;;;;;;;;;;4819596;29;20054;-63
2022/03/13 12:50:47;;;;;;;23.60;13.45;;;;;;;;;;4819710;29;20482;-63
2022/03/13 12:53:22;;;;;;;22.70;14.45;;;;;;;;;;4832808;29;20069;-68
2022/03/13 12:55:52;;;;;;;23.75;14.38;;;;;;;;;;4819229;29;20145;-64
2022/03/13 12:58:19;;;;;;;25.95;15.27;;;;;;;;;;4833573;29;20046;-62
2022/03/13 13:00:45;;;;;;;22.98;14.40;;;;;;;;;;4819812;29;20073;-63
2022/03/13 13:03:13;;;;;;;27.55;14.90;;;;;;;;;;4802981;29;20351;-63
2022/03/13 13:05:47;;;;;;;25.52;14.50;;;;;;;;;;4819129;29;20055;-63
2022/03/13 13:08:14;;;;;;;27.42;15.15;;;;;;;;;;4819513;29;20103;-65
2022/03/13 13:10:40;;;;;;;23.92;14.45;;;;;;;;;;4819433;29;20050;-64
2022/03/13 13:13:07;;;;;;;25.65;14.85;;;;;;;;;;4819484;29;20085;-66
2022/03/13 13:15:34;;;;;;;24.55;15.10;;;;;;;;;;4819070;29;20472;-64
2022/03/13 13:18:00;;;;;;;26.27;14.90;;;;;;;;;;4819407;29;20480;-67
2022/03/13 13:20:29;;;;;;;24.27;15.25;;;;;;;;;;4819576;29;20439;-65
2022/03/13 13:23:12;;;;;;;23.95;14.73;;;;;;;;;;4803066;29;20054;-64
2022/03/13 13:25:39;;;;;;;56.83;34.80;;;;;;;;;;4819331;29;20074;-72
2022/03/13 13:28:11;;;;;;;57.38;38.00;;;;;;;;;;4818749;29;20095;-71
2022/03/13 13:30:38;;;;;;;35.78;19.73;;;;;;;;;;4819299;29;20061;-70
2022/03/13 13:33:11;;;;;;;33.53;15.63;;;;;;;;;;4819168;29;20130;-63
2022/03/13 13:35:54;;;;;;;24.08;14.88;;;;;;;;;;4819061;29;20162;-62
2022/03/13 13:38:22;;;;;;;24.08;14.95;;;;;;;;;;4819104;29;20055;-64
2022/03/13 13:40:58;;;;;;;32.75;19.95;;;;;;;;;;4818983;29;20138;-64
2022/03/13 13:43:28;;;;;;;35.20;21.27;;;;;;;;;;4818928;29;20399;-72
2022/03/13 13:46:03;;;;;;;54.20;36.25;;;;;;;;;;4818747;29;20050;-63
2022/03/13 13:48:30;;;;;;;33.35;19.65;;;;;;;;;;4818467;29;20467;-62
2022/03/13 13:51:15;;;;;;;40.83;28.25;;;;;;;;;;4818712;29;20054;-63
2022/03/13 13:53:51;;;;;;;29.30;18.05;;;;;;;;;;4801813;29;20138;-63
2022/03/13 13:56:23;;;;;;;35.63;23.23;;;;;;;;;;4832199;29;20054;-63
2022/03/13 13:58:49;;;;;;;24.67;16.52;;;;;;;;;;4818524;29;20122;-70
2022/03/13 14:01:32;;;;;;;23.92;14.95;;;;;;;;;;4817929;29;20523;-62
2022/03/13 14:03:59;;;;;;;26.75;15.73;;;;;;;;;;4819788;29;20167;-66
2022/03/13 14:06:32;;;;;;;29.45;15.43;;;;;;;;;;4820200;29;20085;-63
2022/03/13 14:09:02;;;;;;;25.15;15.25;;;;;;;;;;4805557;29;20152;-62
2022/03/13 14:11:28;;;;;;;26.00;16.00;;;;;;;;;;4821582;29;20121;-62
2022/03/13 14:13:55;;;;;;;27.48;14.88;;;;;;;;;;4821931;29;20057;-61
2022/03/13 14:16:21;;;;;;;27.48;15.70;;;;;;;;;;4821807;29;20102;-62
2022/03/13 14:18:47;;;;;;;34.42;15.60;;;;;;;;;;4835593;29;20065;-62
2022/03/13 14:21:13;;;;;;;;;;;;;;;;;;4835991;29;20061;-62
2022/03/13 14:23:39;;;;;;;25.27;15.30;;;;;;;;;;4820287;29;19925;-62
2022/03/13 14:26:05;;;;;;;23.10;14.52;;;;;;;;;;4821483;29;20095;-62
2022/03/13 14:28:31;;;;;;;25.65;15.57;;;;;;;;;;4821462;29;20093;-71
2022/03/13 14:30:58;;;;;;;25.25;14.93;;;;;;;;;;4821436;29;20070;-64